sensor_id;sensor_type;location;lat;lon;timestamp;P1;durP1;ratioP1;P2;durP2;ratioP2
74670;SDS011;63196;39.564;2.628;2023-04-24T00:00:18;8.50;;;3.20;;
74670;SDS011;63196;39.564;2.628;2023-04-24T00:02:44;6.70;;;2.60;;
74670;SDS011;63196;39.564;2.628;2023-04-24T00:05:16;6.10;;;3.00;;
74670;SDS011;63196;39.564;2.628;2023-04-24T00:07:42;6.70;;;2.10;;
74670;SDS011;63196;39.564;2.628;2023-04-24T00:10:08;5.80;;;2.70;;
74670;SDS011;63196;39.564;2.628;2023-04-24T00:12:33;4.70;;;2.00;;
74670;SDS011;63196;39.564;2.628;2023-04-24T00:14:59;5.50;;;2.50;;
74670;SDS011;63196;39.564;2.628;2023-04-24T00:17:24;6.60;;;2.20;;
74670;SDS011;63196;39.564;2.628;2023-04-24T00:19:50;7.60;;;2.50;;
74670;SDS011;63196;39.564;2.628;2023-04-24T00:22:16;9.90;;;2.60;;
74670;SDS011;63196;39.564;2.628;2023-04-24T00:24:42;5.10;;;2.30;;
74670;SDS011;63196;39.564;2.628;2023-04-24T00:27:07;6.30;;;2.70;;
74670;SDS011;63196;39.564;2.628;2023-04-24T00:29:33;8.10;;;2.90;;
74670;SDS011;63196;39.564;2.628;2023-04-24T00:31:58;5.90;;;3.00;;
74670;SDS011;63196;39.564;2.628;2023-04-24T00:34:23;7.70;;;2.70;;
74670;SDS011;63196;39.564;2.628;2023-04-24T00:36:49;6.80;;;2.70;;
74670;SDS011;63196;39.564;2.628;2023-04-24T00:41:42;8.90;;;3.70;;
74670;SDS011;63196;39.564;2.628;2023-04-24T00:44:08;11.30;;;4.00;;
74670;SDS011;63196;39.564;2.628;2023-04-24T00:46:33;6.70;;;3.60;;
74670;SDS011;63196;39.564;2.628;2023-04-24T00:48:59;7.90;;;4.00;;
74670;SDS011;63196;39.564;2.628;2023-04-24T00:51:24;7.90;;;3.40;;
74670;SDS011;63196;39.564;2.628;2023-04-24T00:53:49;8.70;;;3.60;;
74670;SDS011;63196;39.564;2.628;2023-04-24T00:56:15;5.70;;;2.50;;
74670;SDS011;63196;39.564;2.628;2023-04-24T00:58:41;10.40;;;3.40;;
74670;SDS011;63196;39.564;2.628;2023-04-24T01:01:07;6.30;;;2.70;;
74670;SDS011;63196;39.564;2.628;2023-04-24T01:03:33;8.50;;;3.30;;
74670;SDS011;63196;39.564;2.628;2023-04-24T01:06:02;6.80;;;3.10;;
74670;SDS011;63196;39.564;2.628;2023-04-24T01:08:28;7.50;;;2.90;;
74670;SDS011;63196;39.564;2.628;2023-04-24T01:10:53;5.80;;;2.90;;
74670;SDS011;63196;39.564;2.628;2023-04-24T01:13:19;6.50;;;2.70;;
74670;SDS011;63196;39.564;2.628;2023-04-24T01:15:45;7.80;;;3.20;;
74670;SDS011;63196;39.564;2.628;2023-04-24T01:18:10;7.40;;;3.10;;
74670;SDS011;63196;39.564;2.628;2023-04-24T01:20:36;9.40;;;3.00;;
74670;SDS011;63196;39.564;2.628;2023-04-24T01:23:05;10.40;;;3.20;;
74670;SDS011;63196;39.564;2.628;2023-04-24T01:25:30;8.30;;;2.30;;
74670;SDS011;63196;39.564;2.628;2023-04-24T01:27:56;6.30;;;2.50;;
74670;SDS011;63196;39.564;2.628;2023-04-24T01:30:21;7.30;;;3.60;;
74670;SDS011;63196;39.564;2.628;2023-04-24T01:32:46;7.30;;;3.30;;
74670;SDS011;63196;39.564;2.628;2023-04-24T01:35:13;8.80;;;2.60;;
74670;SDS011;63196;39.564;2.628;2023-04-24T01:37:38;10.10;;;3.70;;
74670;SDS011;63196;39.564;2.628;2023-04-24T01:40:06;5.60;;;2.60;;
74670;SDS011;63196;39.564;2.628;2023-04-24T01:42:32;5.80;;;2.30;;
74670;SDS011;63196;39.564;2.628;2023-04-24T01:44:58;7.40;;;3.00;;
74670;SDS011;63196;39.564;2.628;2023-04-24T01:47:24;8.10;;;2.70;;
74670;SDS011;63196;39.564;2.628;2023-04-24T01:49:50;9.60;;;2.20;;
74670;SDS011;63196;39.564;2.628;2023-04-24T01:52:15;7.10;;;3.30;;
74670;SDS011;63196;39.564;2.628;2023-04-24T01:54:42;10.00;;;2.90;;
74670;SDS011;63196;39.564;2.628;2023-04-24T01:57:07;7.10;;;2.90;;
74670;SDS011;63196;39.564;2.628;2023-04-24T01:59:33;7.10;;;2.90;;
74670;SDS011;63196;39.564;2.628;2023-04-24T02:01:59;6.10;;;3.20;;
74670;SDS011;63196;39.564;2.628;2023-04-24T02:04:25;8.00;;;3.20;;
74670;SDS011;63196;39.564;2.628;2023-04-24T02:06:50;8.70;;;3.70;;
74670;SDS011;63196;39.564;2.628;2023-04-24T02:09:16;8.20;;;3.40;;
74670;SDS011;63196;39.564;2.628;2023-04-24T02:11:41;10.00;;;3.60;;
74670;SDS011;63196;39.564;2.628;2023-04-24T02:14:07;11.90;;;2.80;;
74670;SDS011;63196;39.564;2.628;2023-04-24T02:16:32;6.00;;;2.60;;
74670;SDS011;63196;39.564;2.628;2023-04-24T02:18:58;7.40;;;3.10;;
74670;SDS011;63196;39.564;2.628;2023-04-24T02:21:23;7.70;;;3.40;;
74670;SDS011;63196;39.564;2.628;2023-04-24T02:23:48;8.20;;;3.30;;
74670;SDS011;63196;39.564;2.628;2023-04-24T02:26:14;8.60;;;3.90;;
74670;SDS011;63196;39.564;2.628;2023-04-24T02:28:40;6.80;;;3.30;;
74670;SDS011;63196;39.564;2.628;2023-04-24T02:31:05;5.80;;;2.50;;
74670;SDS011;63196;39.564;2.628;2023-04-24T02:33:31;5.80;;;3.30;;
74670;SDS011;63196;39.564;2.628;2023-04-24T02:35:56;7.10;;;3.50;;
74670;SDS011;63196;39.564;2.628;2023-04-24T02:38:21;9.90;;;4.60;;
74670;SDS011;63196;39.564;2.628;2023-04-24T02:40:47;9.80;;;4.10;;
74670;SDS011;63196;39.564;2.628;2023-04-24T02:43:12;10.50;;;4.20;;
74670;SDS011;63196;39.564;2.628;2023-04-24T02:45:38;6.80;;;3.50;;
74670;SDS011;63196;39.564;2.628;2023-04-24T02:48:03;6.80;;;3.40;;
74670;SDS011;63196;39.564;2.628;2023-04-24T02:50:28;9.00;;;3.30;;
74670;SDS011;63196;39.564;2.628;2023-04-24T02:52:54;9.40;;;3.50;;
74670;SDS011;63196;39.564;2.628;2023-04-24T02:55:19;8.90;;;3.70;;
74670;SDS011;63196;39.564;2.628;2023-04-24T02:57:45;10.10;;;3.80;;
74670;SDS011;63196;39.564;2.628;2023-04-24T03:00:10;5.40;;;2.60;;
74670;SDS011;63196;39.564;2.628;2023-04-24T03:02:36;8.30;;;3.50;;
74670;SDS011;63196;39.564;2.628;2023-04-24T03:05:01;8.00;;;3.10;;
74670;SDS011;63196;39.564;2.628;2023-04-24T03:07:27;5.50;;;3.10;;
74670;SDS011;63196;39.564;2.628;2023-04-24T03:09:52;6.80;;;3.50;;
74670;SDS011;63196;39.564;2.628;2023-04-24T03:12:18;9.40;;;3.20;;
74670;SDS011;63196;39.564;2.628;2023-04-24T03:14:43;8.30;;;2.90;;
74670;SDS011;63196;39.564;2.628;2023-04-24T03:17:09;11.20;;;3.90;;
74670;SDS011;63196;39.564;2.628;2023-04-24T03:19:34;6.00;;;3.20;;
74670;SDS011;63196;39.564;2.628;2023-04-24T03:22:01;8.60;;;3.70;;
74670;SDS011;63196;39.564;2.628;2023-04-24T03:24:26;11.40;;;4.60;;
74670;SDS011;63196;39.564;2.628;2023-04-24T03:26:53;10.40;;;3.70;;
74670;SDS011;63196;39.564;2.628;2023-04-24T03:29:18;9.10;;;4.40;;
74670;SDS011;63196;39.564;2.628;2023-04-24T03:31:43;11.00;;;4.60;;
74670;SDS011;63196;39.564;2.628;2023-04-24T03:34:09;9.50;;;3.90;;
74670;SDS011;63196;39.564;2.628;2023-04-24T03:36:35;8.00;;;4.20;;
74670;SDS011;63196;39.564;2.628;2023-04-24T03:39:00;7.30;;;3.70;;
74670;SDS011;63196;39.564;2.628;2023-04-24T03:41:25;9.10;;;3.90;;
74670;SDS011;63196;39.564;2.628;2023-04-24T03:43:51;9.00;;;3.00;;
74670;SDS011;63196;39.564;2.628;2023-04-24T03:46:16;13.90;;;4.30;;
74670;SDS011;63196;39.564;2.628;2023-04-24T03:48:41;9.10;;;3.60;;
74670;SDS011;63196;39.564;2.628;2023-04-24T03:51:07;6.50;;;3.30;;
74670;SDS011;63196;39.564;2.628;2023-04-24T03:53:32;9.80;;;3.60;;
74670;SDS011;63196;39.564;2.628;2023-04-24T03:55:57;7.50;;;3.20;;
74670;SDS011;63196;39.564;2.628;2023-04-24T03:58:23;12.10;;;3.30;;
74670;SDS011;63196;39.564;2.628;2023-04-24T04:00:48;7.20;;;3.40;;
74670;SDS011;63196;39.564;2.628;2023-04-24T04:03:14;12.80;;;3.10;;
74670;SDS011;63196;39.564;2.628;2023-04-24T04:05:40;7.70;;;3.40;;
74670;SDS011;63196;39.564;2.628;2023-04-24T04:08:05;6.50;;;2.90;;
74670;SDS011;63196;39.564;2.628;2023-04-24T04:10:31;4.60;;;2.40;;
74670;SDS011;63196;39.564;2.628;2023-04-24T04:12:57;5.70;;;2.60;;
74670;SDS011;63196;39.564;2.628;2023-04-24T04:15:22;5.80;;;2.90;;
74670;SDS011;63196;39.564;2.628;2023-04-24T04:17:48;10.10;;;3.40;;
74670;SDS011;63196;39.564;2.628;2023-04-24T04:20:13;9.50;;;3.60;;
74670;SDS011;63196;39.564;2.628;2023-04-24T04:22:39;7.20;;;2.90;;
74670;SDS011;63196;39.564;2.628;2023-04-24T04:25:04;7.10;;;3.00;;
74670;SDS011;63196;39.564;2.628;2023-04-24T04:27:30;9.10;;;3.50;;
74670;SDS011;63196;39.564;2.628;2023-04-24T04:29:59;5.60;;;2.50;;
74670;SDS011;63196;39.564;2.628;2023-04-24T04:32:29;6.00;;;2.80;;
74670;SDS011;63196;39.564;2.628;2023-04-24T04:34:55;12.20;;;3.40;;
74670;SDS011;63196;39.564;2.628;2023-04-24T04:37:20;6.50;;;3.20;;
74670;SDS011;63196;39.564;2.628;2023-04-24T04:39:46;8.20;;;3.60;;
74670;SDS011;63196;39.564;2.628;2023-04-24T04:42:11;5.30;;;2.90;;
74670;SDS011;63196;39.564;2.628;2023-04-24T04:44:36;8.10;;;3.30;;
74670;SDS011;63196;39.564;2.628;2023-04-24T04:47:03;8.20;;;2.70;;
74670;SDS011;63196;39.564;2.628;2023-04-24T04:49:31;6.50;;;2.90;;
74670;SDS011;63196;39.564;2.628;2023-04-24T04:51:56;7.50;;;2.60;;
74670;SDS011;63196;39.564;2.628;2023-04-24T04:54:22;4.40;;;2.30;;
74670;SDS011;63196;39.564;2.628;2023-04-24T04:56:49;9.50;;;3.00;;
74670;SDS011;63196;39.564;2.628;2023-04-24T04:59:15;7.80;;;3.10;;
74670;SDS011;63196;39.564;2.628;2023-04-24T05:01:40;9.10;;;3.10;;
74670;SDS011;63196;39.564;2.628;2023-04-24T05:04:06;10.50;;;3.10;;
74670;SDS011;63196;39.564;2.628;2023-04-24T05:06:31;6.90;;;2.80;;
74670;SDS011;63196;39.564;2.628;2023-04-24T05:08:57;7.80;;;3.50;;
74670;SDS011;63196;39.564;2.628;2023-04-24T05:11:22;8.00;;;3.60;;
74670;SDS011;63196;39.564;2.628;2023-04-24T05:13:48;7.50;;;3.00;;
74670;SDS011;63196;39.564;2.628;2023-04-24T05:16:13;5.80;;;2.70;;
74670;SDS011;63196;39.564;2.628;2023-04-24T05:18:38;9.60;;;3.00;;
74670;SDS011;63196;39.564;2.628;2023-04-24T05:21:04;6.00;;;2.80;;
74670;SDS011;63196;39.564;2.628;2023-04-24T05:23:29;8.70;;;3.10;;
74670;SDS011;63196;39.564;2.628;2023-04-24T05:25:55;6.50;;;3.20;;
74670;SDS011;63196;39.564;2.628;2023-04-24T05:28:21;7.80;;;3.00;;
74670;SDS011;63196;39.564;2.628;2023-04-24T05:30:46;5.60;;;2.90;;
74670;SDS011;63196;39.564;2.628;2023-04-24T05:33:12;6.90;;;3.50;;
74670;SDS011;63196;39.564;2.628;2023-04-24T05:35:40;7.80;;;2.60;;
74670;SDS011;63196;39.564;2.628;2023-04-24T05:38:12;4.50;;;2.40;;
74670;SDS011;63196;39.564;2.628;2023-04-24T05:40:38;6.10;;;2.70;;
74670;SDS011;63196;39.564;2.628;2023-04-24T05:43:04;5.10;;;2.50;;
74670;SDS011;63196;39.564;2.628;2023-04-24T05:45:29;7.20;;;2.60;;
74670;SDS011;63196;39.564;2.628;2023-04-24T05:47:54;7.30;;;3.60;;
74670;SDS011;63196;39.564;2.628;2023-04-24T05:50:20;5.40;;;2.60;;
74670;SDS011;63196;39.564;2.628;2023-04-24T05:52:45;5.40;;;2.20;;
74670;SDS011;63196;39.564;2.628;2023-04-24T05:55:11;7.70;;;2.70;;
74670;SDS011;63196;39.564;2.628;2023-04-24T05:57:36;4.70;;;2.60;;
74670;SDS011;63196;39.564;2.628;2023-04-24T06:00:02;9.50;;;3.00;;
74670;SDS011;63196;39.564;2.628;2023-04-24T06:02:28;7.30;;;2.70;;
74670;SDS011;63196;39.564;2.628;2023-04-24T06:04:57;7.50;;;2.70;;
74670;SDS011;63196;39.564;2.628;2023-04-24T06:07:24;9.70;;;3.20;;
74670;SDS011;63196;39.564;2.628;2023-04-24T06:09:49;5.90;;;3.30;;
74670;SDS011;63196;39.564;2.628;2023-04-24T06:12:14;5.00;;;3.30;;
74670;SDS011;63196;39.564;2.628;2023-04-24T06:14:40;9.90;;;2.90;;
74670;SDS011;63196;39.564;2.628;2023-04-24T06:17:05;6.40;;;2.60;;
74670;SDS011;63196;39.564;2.628;2023-04-24T06:19:30;7.00;;;2.70;;
74670;SDS011;63196;39.564;2.628;2023-04-24T06:21:56;8.50;;;3.20;;
74670;SDS011;63196;39.564;2.628;2023-04-24T06:24:21;7.80;;;3.30;;
74670;SDS011;63196;39.564;2.628;2023-04-24T06:26:47;10.10;;;3.80;;
74670;SDS011;63196;39.564;2.628;2023-04-24T06:29:12;7.40;;;3.30;;
74670;SDS011;63196;39.564;2.628;2023-04-24T06:31:38;9.80;;;2.90;;
74670;SDS011;63196;39.564;2.628;2023-04-24T06:34:03;7.60;;;3.00;;
74670;SDS011;63196;39.564;2.628;2023-04-24T06:36:28;6.70;;;3.20;;
74670;SDS011;63196;39.564;2.628;2023-04-24T06:38:54;9.10;;;3.80;;
74670;SDS011;63196;39.564;2.628;2023-04-24T06:41:19;10.00;;;4.10;;
74670;SDS011;63196;39.564;2.628;2023-04-24T06:43:45;11.10;;;3.40;;
74670;SDS011;63196;39.564;2.628;2023-04-24T06:46:10;8.50;;;4.20;;
74670;SDS011;63196;39.564;2.628;2023-04-24T06:48:37;9.70;;;3.40;;
74670;SDS011;63196;39.564;2.628;2023-04-24T06:51:03;10.40;;;4.70;;
74670;SDS011;63196;39.564;2.628;2023-04-24T06:53:29;11.30;;;4.30;;
74670;SDS011;63196;39.564;2.628;2023-04-24T06:55:54;8.50;;;4.00;;
74670;SDS011;63196;39.564;2.628;2023-04-24T06:58:19;7.70;;;3.90;;
74670;SDS011;63196;39.564;2.628;2023-04-24T07:00:45;9.30;;;3.50;;
74670;SDS011;63196;39.564;2.628;2023-04-24T07:03:10;6.20;;;2.80;;
74670;SDS011;63196;39.564;2.628;2023-04-24T07:05:36;5.50;;;2.90;;
74670;SDS011;63196;39.564;2.628;2023-04-24T07:08:03;7.10;;;3.00;;
74670;SDS011;63196;39.564;2.628;2023-04-24T07:10:28;9.30;;;3.70;;
74670;SDS011;63196;39.564;2.628;2023-04-24T07:12:54;7.30;;;3.40;;
74670;SDS011;63196;39.564;2.628;2023-04-24T07:15:21;7.00;;;3.00;;
74670;SDS011;63196;39.564;2.628;2023-04-24T07:17:46;8.20;;;3.80;;
74670;SDS011;63196;39.564;2.628;2023-04-24T07:20:12;9.80;;;3.90;;
74670;SDS011;63196;39.564;2.628;2023-04-24T07:22:39;8.50;;;4.30;;
74670;SDS011;63196;39.564;2.628;2023-04-24T07:25:04;8.80;;;4.10;;
74670;SDS011;63196;39.564;2.628;2023-04-24T07:27:30;8.60;;;4.00;;
74670;SDS011;63196;39.564;2.628;2023-04-24T07:29:55;6.50;;;3.80;;
74670;SDS011;63196;39.564;2.628;2023-04-24T07:32:21;9.40;;;3.50;;
74670;SDS011;63196;39.564;2.628;2023-04-24T07:34:46;9.10;;;4.60;;
74670;SDS011;63196;39.564;2.628;2023-04-24T07:37:12;8.80;;;4.00;;
74670;SDS011;63196;39.564;2.628;2023-04-24T07:39:37;9.30;;;5.20;;
74670;SDS011;63196;39.564;2.628;2023-04-24T07:42:02;9.30;;;3.60;;
74670;SDS011;63196;39.564;2.628;2023-04-24T07:44:28;8.60;;;4.70;;
74670;SDS011;63196;39.564;2.628;2023-04-24T07:49:29;9.40;;;4.30;;
74670;SDS011;63196;39.564;2.628;2023-04-24T07:51:54;9.50;;;5.00;;
74670;SDS011;63196;39.564;2.628;2023-04-24T07:54:20;9.00;;;4.40;;
74670;SDS011;63196;39.564;2.628;2023-04-24T07:56:46;11.10;;;4.30;;
74670;SDS011;63196;39.564;2.628;2023-04-24T07:59:11;7.30;;;4.10;;
74670;SDS011;63196;39.564;2.628;2023-04-24T08:01:36;8.20;;;3.70;;
74670;SDS011;63196;39.564;2.628;2023-04-24T08:04:02;8.10;;;3.60;;
74670;SDS011;63196;39.564;2.628;2023-04-24T08:06:28;5.80;;;2.30;;
74670;SDS011;63196;39.564;2.628;2023-04-24T08:08:55;8.10;;;3.30;;
74670;SDS011;63196;39.564;2.628;2023-04-24T08:11:21;5.90;;;2.00;;
74670;SDS011;63196;39.564;2.628;2023-04-24T08:13:46;5.30;;;3.00;;
74670;SDS011;63196;39.564;2.628;2023-04-24T08:16:12;7.80;;;3.20;;
74670;SDS011;63196;39.564;2.628;2023-04-24T08:18:37;9.00;;;3.40;;
74670;SDS011;63196;39.564;2.628;2023-04-24T08:21:03;7.50;;;2.90;;
74670;SDS011;63196;39.564;2.628;2023-04-24T08:23:28;5.40;;;2.10;;
74670;SDS011;63196;39.564;2.628;2023-04-24T08:25:54;6.60;;;2.70;;
74670;SDS011;63196;39.564;2.628;2023-04-24T08:28:20;6.10;;;2.50;;
74670;SDS011;63196;39.564;2.628;2023-04-24T08:30:46;5.10;;;2.50;;
74670;SDS011;63196;39.564;2.628;2023-04-24T08:33:19;7.30;;;2.60;;
74670;SDS011;63196;39.564;2.628;2023-04-24T08:35:45;6.10;;;2.50;;
74670;SDS011;63196;39.564;2.628;2023-04-24T08:38:10;6.40;;;2.70;;
74670;SDS011;63196;39.564;2.628;2023-04-24T08:40:36;6.00;;;2.60;;
74670;SDS011;63196;39.564;2.628;2023-04-24T08:43:01;7.10;;;3.10;;
74670;SDS011;63196;39.564;2.628;2023-04-24T08:45:28;8.70;;;3.00;;
74670;SDS011;63196;39.564;2.628;2023-04-24T08:47:54;7.60;;;2.70;;
74670;SDS011;63196;39.564;2.628;2023-04-24T08:50:20;4.80;;;2.20;;
74670;SDS011;63196;39.564;2.628;2023-04-24T08:52:45;7.00;;;2.60;;
74670;SDS011;63196;39.564;2.628;2023-04-24T08:55:12;8.10;;;2.70;;
74670;SDS011;63196;39.564;2.628;2023-04-24T08:57:39;5.60;;;2.20;;
74670;SDS011;63196;39.564;2.628;2023-04-24T09:02:31;6.50;;;2.60;;
74670;SDS011;63196;39.564;2.628;2023-04-24T09:04:57;5.60;;;2.30;;
74670;SDS011;63196;39.564;2.628;2023-04-24T09:07:24;6.70;;;2.40;;
74670;SDS011;63196;39.564;2.628;2023-04-24T09:09:51;8.60;;;2.50;;
74670;SDS011;63196;39.564;2.628;2023-04-24T09:12:17;5.10;;;2.30;;
74670;SDS011;63196;39.564;2.628;2023-04-24T09:14:42;4.20;;;1.90;;
74670;SDS011;63196;39.564;2.628;2023-04-24T09:17:10;7.50;;;2.20;;
74670;SDS011;63196;39.564;2.628;2023-04-24T09:19:36;4.40;;;2.00;;
74670;SDS011;63196;39.564;2.628;2023-04-24T09:22:04;4.50;;;1.90;;
74670;SDS011;63196;39.564;2.628;2023-04-24T09:24:30;6.40;;;1.80;;
74670;SDS011;63196;39.564;2.628;2023-04-24T09:26:56;5.10;;;2.10;;
74670;SDS011;63196;39.564;2.628;2023-04-24T09:29:26;5.80;;;1.90;;
74670;SDS011;63196;39.564;2.628;2023-04-24T09:31:52;4.80;;;1.80;;
74670;SDS011;63196;39.564;2.628;2023-04-24T09:34:21;4.90;;;2.10;;
74670;SDS011;63196;39.564;2.628;2023-04-24T09:36:48;5.30;;;1.80;;
74670;SDS011;63196;39.564;2.628;2023-04-24T09:39:14;4.50;;;1.60;;
74670;SDS011;63196;39.564;2.628;2023-04-24T09:41:51;6.10;;;1.90;;
74670;SDS011;63196;39.564;2.628;2023-04-24T09:44:17;4.10;;;2.30;;
74670;SDS011;63196;39.564;2.628;2023-04-24T09:46:45;5.60;;;1.90;;
74670;SDS011;63196;39.564;2.628;2023-04-24T09:49:15;6.00;;;1.70;;
74670;SDS011;63196;39.564;2.628;2023-04-24T09:51:41;4.20;;;1.70;;
74670;SDS011;63196;39.564;2.628;2023-04-24T09:54:17;5.70;;;1.80;;
74670;SDS011;63196;39.564;2.628;2023-04-24T09:56:43;6.90;;;1.80;;
74670;SDS011;63196;39.564;2.628;2023-04-24T09:59:10;7.70;;;2.50;;
74670;SDS011;63196;39.564;2.628;2023-04-24T10:01:35;7.20;;;2.00;;
74670;SDS011;63196;39.564;2.628;2023-04-24T10:04:03;9.80;;;2.70;;
74670;SDS011;63196;39.564;2.628;2023-04-24T10:06:33;5.70;;;2.00;;
74670;SDS011;63196;39.564;2.628;2023-04-24T10:08:58;5.50;;;1.60;;
74670;SDS011;63196;39.564;2.628;2023-04-24T10:11:26;5.50;;;1.80;;
74670;SDS011;63196;39.564;2.628;2023-04-24T10:13:52;7.00;;;1.80;;
74670;SDS011;63196;39.564;2.628;2023-04-24T10:16:17;6.90;;;2.00;;
74670;SDS011;63196;39.564;2.628;2023-04-24T10:18:43;5.40;;;1.80;;
74670;SDS011;63196;39.564;2.628;2023-04-24T10:21:09;4.60;;;1.90;;
74670;SDS011;63196;39.564;2.628;2023-04-24T10:23:34;7.00;;;1.80;;
74670;SDS011;63196;39.564;2.628;2023-04-24T10:26:01;3.70;;;1.60;;
74670;SDS011;63196;39.564;2.628;2023-04-24T10:28:26;4.50;;;1.60;;
74670;SDS011;63196;39.564;2.628;2023-04-24T10:30:53;5.80;;;1.80;;
74670;SDS011;63196;39.564;2.628;2023-04-24T10:35:45;5.10;;;2.40;;
74670;SDS011;63196;39.564;2.628;2023-04-24T10:38:14;6.10;;;1.90;;
74670;SDS011;63196;39.564;2.628;2023-04-24T10:40:41;3.90;;;1.50;;
74670;SDS011;63196;39.564;2.628;2023-04-24T10:43:07;3.80;;;1.40;;
74670;SDS011;63196;39.564;2.628;2023-04-24T10:45:36;5.60;;;1.60;;
74670;SDS011;63196;39.564;2.628;2023-04-24T10:48:06;6.50;;;2.00;;
74670;SDS011;63196;39.564;2.628;2023-04-24T10:53:07;9.40;;;1.90;;
74670;SDS011;63196;39.564;2.628;2023-04-24T10:55:58;8.80;;;1.60;;
74670;SDS011;63196;39.564;2.628;2023-04-24T10:58:22;10.00;;;1.70;;
74670;SDS011;63196;39.564;2.628;2023-04-24T11:01:00;4.30;;;1.50;;
74670;SDS011;63196;39.564;2.628;2023-04-24T11:03:27;7.60;;;1.80;;
74670;SDS011;63196;39.564;2.628;2023-04-24T11:05:57;4.80;;;1.40;;
74670;SDS011;63196;39.564;2.628;2023-04-24T11:08:24;5.20;;;1.90;;
74670;SDS011;63196;39.564;2.628;2023-04-24T11:10:55;7.00;;;1.80;;
74670;SDS011;63196;39.564;2.628;2023-04-24T11:13:22;3.90;;;1.50;;
74670;SDS011;63196;39.564;2.628;2023-04-24T11:18:38;6.90;;;1.70;;
74670;SDS011;63196;39.564;2.628;2023-04-24T11:21:16;5.40;;;1.50;;
74670;SDS011;63196;39.564;2.628;2023-04-24T11:23:41;4.50;;;1.50;;
74670;SDS011;63196;39.564;2.628;2023-04-24T11:26:10;6.40;;;2.00;;
74670;SDS011;63196;39.564;2.628;2023-04-24T11:28:37;5.60;;;1.50;;
74670;SDS011;63196;39.564;2.628;2023-04-24T11:33:46;6.10;;;1.70;;
74670;SDS011;63196;39.564;2.628;2023-04-24T11:36:11;5.20;;;1.90;;
74670;SDS011;63196;39.564;2.628;2023-04-24T11:38:38;3.90;;;1.50;;
74670;SDS011;63196;39.564;2.628;2023-04-24T11:41:04;4.00;;;1.40;;
74670;SDS011;63196;39.564;2.628;2023-04-24T11:43:31;4.10;;;1.70;;
74670;SDS011;63196;39.564;2.628;2023-04-24T11:45:59;5.20;;;1.60;;
74670;SDS011;63196;39.564;2.628;2023-04-24T11:48:25;5.60;;;1.90;;
74670;SDS011;63196;39.564;2.628;2023-04-24T11:50:50;5.50;;;1.60;;
74670;SDS011;63196;39.564;2.628;2023-04-24T11:53:18;4.70;;;1.50;;
74670;SDS011;63196;39.564;2.628;2023-04-24T11:55:43;5.50;;;1.60;;
74670;SDS011;63196;39.564;2.628;2023-04-24T11:58:09;7.30;;;1.90;;
74670;SDS011;63196;39.564;2.628;2023-04-24T12:00:34;4.60;;;1.50;;
74670;SDS011;63196;39.564;2.628;2023-04-24T12:03:07;4.40;;;1.40;;
74670;SDS011;63196;39.564;2.628;2023-04-24T12:05:33;4.00;;;1.50;;
74670;SDS011;63196;39.564;2.628;2023-04-24T12:07:59;3.00;;;1.30;;
74670;SDS011;63196;39.564;2.628;2023-04-24T12:10:26;5.60;;;1.50;;
74670;SDS011;63196;39.564;2.628;2023-04-24T12:12:53;4.10;;;1.50;;
74670;SDS011;63196;39.564;2.628;2023-04-24T12:15:19;4.60;;;1.80;;
74670;SDS011;63196;39.564;2.628;2023-04-24T12:17:45;3.70;;;1.50;;
74670;SDS011;63196;39.564;2.628;2023-04-24T12:20:10;3.20;;;1.30;;
74670;SDS011;63196;39.564;2.628;2023-04-24T12:22:52;6.50;;;1.40;;
74670;SDS011;63196;39.564;2.628;2023-04-24T12:25:19;5.80;;;1.60;;
74670;SDS011;63196;39.564;2.628;2023-04-24T12:27:45;7.00;;;1.80;;
74670;SDS011;63196;39.564;2.628;2023-04-24T12:30:15;5.40;;;1.50;;
74670;SDS011;63196;39.564;2.628;2023-04-24T12:32:41;5.10;;;1.60;;
74670;SDS011;63196;39.564;2.628;2023-04-24T12:35:07;3.70;;;1.50;;
74670;SDS011;63196;39.564;2.628;2023-04-24T12:37:33;3.70;;;1.60;;
74670;SDS011;63196;39.564;2.628;2023-04-24T12:39:59;4.40;;;1.50;;
74670;SDS011;63196;39.564;2.628;2023-04-24T12:42:26;3.60;;;1.50;;
74670;SDS011;63196;39.564;2.628;2023-04-24T12:44:55;4.40;;;1.40;;
74670;SDS011;63196;39.564;2.628;2023-04-24T12:47:21;4.00;;;1.50;;
74670;SDS011;63196;39.564;2.628;2023-04-24T12:49:46;3.00;;;1.60;;
74670;SDS011;63196;39.564;2.628;2023-04-24T12:52:11;3.40;;;1.60;;
74670;SDS011;63196;39.564;2.628;2023-04-24T12:54:37;4.00;;;1.50;;
74670;SDS011;63196;39.564;2.628;2023-04-24T12:57:02;3.20;;;1.40;;
74670;SDS011;63196;39.564;2.628;2023-04-24T12:59:27;4.30;;;1.30;;
74670;SDS011;63196;39.564;2.628;2023-04-24T13:01:53;3.80;;;1.40;;
74670;SDS011;63196;39.564;2.628;2023-04-24T13:04:18;4.60;;;1.70;;
74670;SDS011;63196;39.564;2.628;2023-04-24T13:06:44;5.80;;;1.90;;
74670;SDS011;63196;39.564;2.628;2023-04-24T13:09:09;4.50;;;1.30;;
74670;SDS011;63196;39.564;2.628;2023-04-24T13:11:34;5.40;;;1.70;;
74670;SDS011;63196;39.564;2.628;2023-04-24T13:14:00;3.30;;;1.20;;
74670;SDS011;63196;39.564;2.628;2023-04-24T13:16:25;5.30;;;1.70;;
74670;SDS011;63196;39.564;2.628;2023-04-24T13:18:50;3.40;;;1.20;;
74670;SDS011;63196;39.564;2.628;2023-04-24T13:21:16;3.70;;;1.50;;
74670;SDS011;63196;39.564;2.628;2023-04-24T13:23:41;3.10;;;1.60;;
74670;SDS011;63196;39.564;2.628;2023-04-24T13:26:07;4.30;;;1.40;;
74670;SDS011;63196;39.564;2.628;2023-04-24T13:28:32;3.10;;;1.30;;
74670;SDS011;63196;39.564;2.628;2023-04-24T13:30:58;4.70;;;1.60;;
74670;SDS011;63196;39.564;2.628;2023-04-24T13:33:23;7.00;;;1.90;;
74670;SDS011;63196;39.564;2.628;2023-04-24T13:35:49;4.30;;;1.80;;
74670;SDS011;63196;39.564;2.628;2023-04-24T13:38:14;3.20;;;1.30;;
74670;SDS011;63196;39.564;2.628;2023-04-24T13:40:39;3.80;;;1.50;;
74670;SDS011;63196;39.564;2.628;2023-04-24T13:43:05;4.20;;;1.20;;
74670;SDS011;63196;39.564;2.628;2023-04-24T13:45:30;4.00;;;1.40;;
74670;SDS011;63196;39.564;2.628;2023-04-24T13:47:56;3.90;;;1.70;;
74670;SDS011;63196;39.564;2.628;2023-04-24T13:50:22;5.50;;;1.40;;
74670;SDS011;63196;39.564;2.628;2023-04-24T13:52:47;3.00;;;1.40;;
74670;SDS011;63196;39.564;2.628;2023-04-24T13:55:13;3.40;;;1.30;;
74670;SDS011;63196;39.564;2.628;2023-04-24T13:57:38;3.00;;;1.30;;
74670;SDS011;63196;39.564;2.628;2023-04-24T14:00:03;2.90;;;1.00;;
74670;SDS011;63196;39.564;2.628;2023-04-24T14:02:32;2.80;;;1.20;;
74670;SDS011;63196;39.564;2.628;2023-04-24T14:04:57;5.40;;;1.20;;
74670;SDS011;63196;39.564;2.628;2023-04-24T14:07:22;5.10;;;1.20;;
74670;SDS011;63196;39.564;2.628;2023-04-24T14:09:48;4.30;;;1.50;;
74670;SDS011;63196;39.564;2.628;2023-04-24T14:12:13;5.20;;;1.40;;
74670;SDS011;63196;39.564;2.628;2023-04-24T14:14:41;3.90;;;1.20;;
74670;SDS011;63196;39.564;2.628;2023-04-24T14:17:06;3.00;;;1.00;;
74670;SDS011;63196;39.564;2.628;2023-04-24T14:19:32;3.40;;;1.30;;
74670;SDS011;63196;39.564;2.628;2023-04-24T14:21:57;2.40;;;1.00;;
74670;SDS011;63196;39.564;2.628;2023-04-24T14:24:23;5.20;;;1.00;;
74670;SDS011;63196;39.564;2.628;2023-04-24T14:26:48;3.10;;;1.10;;
74670;SDS011;63196;39.564;2.628;2023-04-24T14:29:14;3.00;;;1.10;;
74670;SDS011;63196;39.564;2.628;2023-04-24T14:31:40;3.90;;;1.30;;
74670;SDS011;63196;39.564;2.628;2023-04-24T14:34:06;3.30;;;1.20;;
74670;SDS011;63196;39.564;2.628;2023-04-24T14:36:31;2.60;;;1.00;;
74670;SDS011;63196;39.564;2.628;2023-04-24T14:38:56;3.20;;;1.00;;
74670;SDS011;63196;39.564;2.628;2023-04-24T14:41:22;3.10;;;0.90;;
74670;SDS011;63196;39.564;2.628;2023-04-24T14:43:47;4.00;;;1.30;;
74670;SDS011;63196;39.564;2.628;2023-04-24T14:46:13;5.30;;;1.30;;
74670;SDS011;63196;39.564;2.628;2023-04-24T14:48:39;6.10;;;1.10;;
74670;SDS011;63196;39.564;2.628;2023-04-24T14:51:05;7.60;;;1.30;;
74670;SDS011;63196;39.564;2.628;2023-04-24T14:53:30;3.00;;;1.10;;
74670;SDS011;63196;39.564;2.628;2023-04-24T14:55:56;4.20;;;1.00;;